Aviation Digital Data Service (ADDS)

Output produced by METARs form (1416 UTC 25 January 2015)
found at http://www.aviationweather.gov/adds/metars/
 
KBOS 251135Z 2512/2618 26013KT P6SM BKN050 
     FM251500 28017G26KT P6SM SCT035 
     FM251800 29019G27KT P6SM SCT250 
     FM252300 29011G24KT P6SM FEW250 
     FM260600 32008KT P6SM FEW200 
     FM261200 36007KT P6SM BKN050 
     FM261500 05008KT P6SM BKN020